sensor_id;sensor_type;location;lat;lon;timestamp;temperature;humidity
5924;DHT22;2987;50.884;14.818;2023-03-01T15:16:26;6.10;99.90
5924;DHT22;2987;50.884;14.818;2023-03-01T15:18:56;5.80;99.90
5924;DHT22;2987;50.884;14.818;2023-03-01T15:21:26;6.00;99.90
5924;DHT22;2987;50.884;14.818;2023-03-01T15:26:57;6.00;99.90
5924;DHT22;2987;50.884;14.818;2023-03-01T15:29:30;6.00;99.90
5924;DHT22;2987;50.884;14.818;2023-03-01T15:32:04;6.00;99.90
5924;DHT22;2987;50.884;14.818;2023-03-01T15:34:36;5.80;99.90
5924;DHT22;2987;50.884;14.818;2023-03-01T15:37:06;5.50;99.90
5924;DHT22;2987;50.884;14.818;2023-03-01T15:39:41;5.50;99.90
5924;DHT22;2987;50.884;14.818;2023-03-01T15:45:21;5.70;99.90
5924;DHT22;2987;50.884;14.818;2023-03-01T15:47:52;5.80;99.90
5924;DHT22;2987;50.884;14.818;2023-03-01T15:50:25;5.50;99.90
5924;DHT22;2987;50.884;14.818;2023-03-01T15:55:21;5.30;99.90
5924;DHT22;2987;50.884;14.818;2023-03-01T15:57:49;4.90;99.90
5924;DHT22;2987;50.884;14.818;2023-03-01T16:00:16;5.00;99.90
5924;DHT22;2987;50.884;14.818;2023-03-01T16:02:45;5.20;99.90
5924;DHT22;2987;50.884;14.818;2023-03-01T16:05:20;4.90;99.90
5924;DHT22;2987;50.884;14.818;2023-03-01T16:07:46;5.00;99.90
5924;DHT22;2987;50.884;14.818;2023-03-01T16:10:13;4.70;99.90
5924;DHT22;2987;50.884;14.818;2023-03-01T16:12:39;4.80;99.90
5924;DHT22;2987;50.884;14.818;2023-03-01T16:15:16;4.50;99.90
5924;DHT22;2987;50.884;14.818;2023-03-01T16:17:42;4.30;99.90
5924;DHT22;2987;50.884;14.818;2023-03-01T16:20:09;4.30;99.90
5924;DHT22;2987;50.884;14.818;2023-03-01T16:22:35;4.50;99.90
5924;DHT22;2987;50.884;14.818;2023-03-01T16:25:01;4.50;99.90
5924;DHT22;2987;50.884;14.818;2023-03-01T16:27:28;4.00;99.90
5924;DHT22;2987;50.884;14.818;2023-03-01T16:29:54;4.00;99.90
5924;DHT22;2987;50.884;14.818;2023-03-01T16:32:20;3.90;99.90
5924;DHT22;2987;50.884;14.818;2023-03-01T16:34:46;3.80;99.90
5924;DHT22;2987;50.884;14.818;2023-03-01T16:37:15;3.80;99.90
5924;DHT22;2987;50.884;14.818;2023-03-01T16:39:41;3.70;99.90
5924;DHT22;2987;50.884;14.818;2023-03-01T16:42:08;3.40;99.90
5924;DHT22;2987;50.884;14.818;2023-03-01T16:44:34;3.40;99.90
5924;DHT22;2987;50.884;14.818;2023-03-01T16:47:00;3.50;99.90
5924;DHT22;2987;50.884;14.818;2023-03-01T16:49:26;3.10;99.90
5924;DHT22;2987;50.884;14.818;2023-03-01T16:51:53;3.30;99.90
5924;DHT22;2987;50.884;14.818;2023-03-01T16:54:19;3.00;99.90
5924;DHT22;2987;50.884;14.818;2023-03-01T16:56:45;2.80;99.90
5924;DHT22;2987;50.884;14.818;2023-03-01T16:59:11;2.90;99.90
5924;DHT22;2987;50.884;14.818;2023-03-01T17:01:37;3.00;99.90
5924;DHT22;2987;50.884;14.818;2023-03-01T17:04:09;2.50;99.90
5924;DHT22;2987;50.884;14.818;2023-03-01T17:06:37;2.60;99.90
5924;DHT22;2987;50.884;14.818;2023-03-01T17:09:03;2.50;99.90
5924;DHT22;2987;50.884;14.818;2023-03-01T17:11:29;2.50;99.90
5924;DHT22;2987;50.884;14.818;2023-03-01T17:13:55;2.40;99.90
5924;DHT22;2987;50.884;14.818;2023-03-01T17:16:21;2.50;99.90
5924;DHT22;2987;50.884;14.818;2023-03-01T17:18:48;2.30;99.90
5924;DHT22;2987;50.884;14.818;2023-03-01T17:21:15;2.20;99.90
5924;DHT22;2987;50.884;14.818;2023-03-01T17:23:43;2.20;99.90
5924;DHT22;2987;50.884;14.818;2023-03-01T17:26:10;2.20;99.90
5924;DHT22;2987;50.884;14.818;2023-03-01T17:28:37;2.10;99.90
5924;DHT22;2987;50.884;14.818;2023-03-01T17:31:04;1.80;99.90
5924;DHT22;2987;50.884;14.818;2023-03-01T17:33:31;2.00;99.90
5924;DHT22;2987;50.884;14.818;2023-03-01T17:35:58;2.00;99.90
5924;DHT22;2987;50.884;14.818;2023-03-01T17:38:24;1.80;99.90
5924;DHT22;2987;50.884;14.818;2023-03-01T17:40:51;1.50;99.90
5924;DHT22;2987;50.884;14.818;2023-03-01T17:43:17;1.70;99.90
5924;DHT22;2987;50.884;14.818;2023-03-01T17:45:44;1.20;99.90
5924;DHT22;2987;50.884;14.818;2023-03-01T17:48:14;1.40;99.90
5924;DHT22;2987;50.884;14.818;2023-03-01T17:50:41;1.30;99.90
5924;DHT22;2987;50.884;14.818;2023-03-01T17:53:08;1.40;99.90
5924;DHT22;2987;50.884;14.818;2023-03-01T17:55:36;1.30;99.90
5924;DHT22;2987;50.884;14.818;2023-03-01T17:58:04;1.00;99.90
5924;DHT22;2987;50.884;14.818;2023-03-01T18:00:31;0.90;99.90
5924;DHT22;2987;50.884;14.818;2023-03-01T18:02:57;0.90;99.90
5924;DHT22;2987;50.884;14.818;2023-03-01T18:05:23;1.20;99.90
5924;DHT22;2987;50.884;14.818;2023-03-01T18:07:51;0.70;99.90
5924;DHT22;2987;50.884;14.818;2023-03-01T18:10:19;0.60;99.90
5924;DHT22;2987;50.884;14.818;2023-03-01T18:12:45;0.60;99.90
5924;DHT22;2987;50.884;14.818;2023-03-01T18:15:12;0.90;99.90
5924;DHT22;2987;50.884;14.818;2023-03-01T18:17:38;0.60;99.90
5924;DHT22;2987;50.884;14.818;2023-03-01T18:20:05;0.90;99.90
5924;DHT22;2987;50.884;14.818;2023-03-01T18:22:32;0.60;99.90
5924;DHT22;2987;50.884;14.818;2023-03-01T18:24:58;0.80;99.90
5924;DHT22;2987;50.884;14.818;2023-03-01T18:27:25;0.40;99.90
5924;DHT22;2987;50.884;14.818;2023-03-01T18:29:51;0.50;99.90
5924;DHT22;2987;50.884;14.818;2023-03-01T18:32:18;0.40;99.90
5924;DHT22;2987;50.884;14.818;2023-03-01T18:34:44;0.70;99.90
5924;DHT22;2987;50.884;14.818;2023-03-01T18:37:10;0.60;99.90
5924;DHT22;2987;50.884;14.818;2023-03-01T18:39:37;0.20;99.90
5924;DHT22;2987;50.884;14.818;2023-03-01T18:42:03;0.20;99.90
5924;DHT22;2987;50.884;14.818;2023-03-01T18:44:29;0.00;99.90
5924;DHT22;2987;50.884;14.818;2023-03-01T18:46:55;-0.10;99.90
5924;DHT22;2987;50.884;14.818;2023-03-01T18:49:24;0.00;99.90
5924;DHT22;2987;50.884;14.818;2023-03-01T18:51:51;-0.10;99.90
5924;DHT22;2987;50.884;14.818;2023-03-01T18:54:18;-0.30;99.90
5924;DHT22;2987;50.884;14.818;2023-03-01T18:56:44;-0.30;99.90
5924;DHT22;2987;50.884;14.818;2023-03-01T18:59:11;-0.30;99.90
5924;DHT22;2987;50.884;14.818;2023-03-01T19:01:37;-0.30;99.90
5924;DHT22;2987;50.884;14.818;2023-03-01T19:04:04;-0.30;99.90
5924;DHT22;2987;50.884;14.818;2023-03-01T19:06:32;-0.30;99.90
5924;DHT22;2987;50.884;14.818;2023-03-01T19:08:59;-0.30;99.90
5924;DHT22;2987;50.884;14.818;2023-03-01T19:11:26;-0.20;99.90
5924;DHT22;2987;50.884;14.818;2023-03-01T19:13:55;-0.30;99.90
5924;DHT22;2987;50.884;14.818;2023-03-01T19:16:24;-0.30;99.90
5924;DHT22;2987;50.884;14.818;2023-03-01T19:18:55;-0.40;99.90
5924;DHT22;2987;50.884;14.818;2023-03-01T19:21:26;-0.50;99.90
5924;DHT22;2987;50.884;14.818;2023-03-01T19:23:53;-0.60;99.90
5924;DHT22;2987;50.884;14.818;2023-03-01T19:26:22;-0.40;99.90
5924;DHT22;2987;50.884;14.818;2023-03-01T19:28:50;-0.50;99.90
5924;DHT22;2987;50.884;14.818;2023-03-01T19:31:20;-0.50;99.90
5924;DHT22;2987;50.884;14.818;2023-03-01T19:33:49;-0.70;99.90
5924;DHT22;2987;50.884;14.818;2023-03-01T19:36:16;-0.70;99.90
5924;DHT22;2987;50.884;14.818;2023-03-01T19:38:43;-0.70;99.90
5924;DHT22;2987;50.884;14.818;2023-03-01T19:41:12;-0.70;99.90
5924;DHT22;2987;50.884;14.818;2023-03-01T19:43:40;-0.90;99.90
5924;DHT22;2987;50.884;14.818;2023-03-01T19:46:09;-0.80;99.90
5924;DHT22;2987;50.884;14.818;2023-03-01T19:48:36;-0.90;99.90
5924;DHT22;2987;50.884;14.818;2023-03-01T19:51:05;-1.10;99.90
5924;DHT22;2987;50.884;14.818;2023-03-01T19:53:33;-0.90;99.90
5924;DHT22;2987;50.884;14.818;2023-03-01T19:56:00;-0.90;99.90
5924;DHT22;2987;50.884;14.818;2023-03-01T19:58:28;-1.00;99.90
5924;DHT22;2987;50.884;14.818;2023-03-01T20:00:56;-1.00;99.90
5924;DHT22;2987;50.884;14.818;2023-03-01T20:03:28;-1.30;99.90
5924;DHT22;2987;50.884;14.818;2023-03-01T20:05:54;-1.10;99.90
5924;DHT22;2987;50.884;14.818;2023-03-01T20:08:22;-1.00;99.90
5924;DHT22;2987;50.884;14.818;2023-03-01T20:10:48;-1.20;99.90
5924;DHT22;2987;50.884;14.818;2023-03-01T20:13:14;-1.20;99.90
5924;DHT22;2987;50.884;14.818;2023-03-01T20:15:42;-1.10;99.90
5924;DHT22;2987;50.884;14.818;2023-03-01T20:18:09;-1.30;99.90
5924;DHT22;2987;50.884;14.818;2023-03-01T20:20:36;-1.10;99.90
5924;DHT22;2987;50.884;14.818;2023-03-01T20:23:03;-1.10;99.90
5924;DHT22;2987;50.884;14.818;2023-03-01T20:25:29;-1.00;99.90
5924;DHT22;2987;50.884;14.818;2023-03-01T20:27:55;-1.10;99.90
5924;DHT22;2987;50.884;14.818;2023-03-01T20:30:21;-1.50;99.90
5924;DHT22;2987;50.884;14.818;2023-03-01T20:32:47;-1.30;99.90
5924;DHT22;2987;50.884;14.818;2023-03-01T20:35:14;-1.40;99.90
5924;DHT22;2987;50.884;14.818;2023-03-01T20:37:40;-1.40;99.90
5924;DHT22;2987;50.884;14.818;2023-03-01T20:40:06;-1.60;99.90
5924;DHT22;2987;50.884;14.818;2023-03-01T20:42:34;-1.50;99.90
5924;DHT22;2987;50.884;14.818;2023-03-01T20:45:00;-1.80;99.90
5924;DHT22;2987;50.884;14.818;2023-03-01T20:47:26;-1.50;99.90
5924;DHT22;2987;50.884;14.818;2023-03-01T20:49:52;-1.50;99.90
5924;DHT22;2987;50.884;14.818;2023-03-01T20:52:19;-1.90;99.90
5924;DHT22;2987;50.884;14.818;2023-03-01T20:54:45;-1.90;99.90
5924;DHT22;2987;50.884;14.818;2023-03-01T20:57:11;-2.00;99.90
5924;DHT22;2987;50.884;14.818;2023-03-01T20:59:37;-1.80;99.90
5924;DHT22;2987;50.884;14.818;2023-03-01T21:02:03;-1.70;99.90
5924;DHT22;2987;50.884;14.818;2023-03-01T21:04:29;-1.80;99.90
5924;DHT22;2987;50.884;14.818;2023-03-01T21:06:55;-1.70;99.90
5924;DHT22;2987;50.884;14.818;2023-03-01T21:09:21;-1.80;99.90
5924;DHT22;2987;50.884;14.818;2023-03-01T21:11:49;-1.70;99.90
5924;DHT22;2987;50.884;14.818;2023-03-01T21:14:15;-1.80;99.90
5924;DHT22;2987;50.884;14.818;2023-03-01T21:16:41;-1.70;99.90
5924;DHT22;2987;50.884;14.818;2023-03-01T21:19:10;-1.70;99.90
5924;DHT22;2987;50.884;14.818;2023-03-01T21:21:36;-1.80;99.90
5924;DHT22;2987;50.884;14.818;2023-03-01T21:24:03;-1.70;99.90
5924;DHT22;2987;50.884;14.818;2023-03-01T21:26:29;-1.80;99.90
5924;DHT22;2987;50.884;14.818;2023-03-01T21:28:57;-1.90;99.90
5924;DHT22;2987;50.884;14.818;2023-03-01T21:31:26;-1.90;99.90
5924;DHT22;2987;50.884;14.818;2023-03-01T21:33:55;-2.10;99.90
5924;DHT22;2987;50.884;14.818;2023-03-01T21:36:23;-2.30;99.90
5924;DHT22;2987;50.884;14.818;2023-03-01T21:38:50;-2.00;99.90
5924;DHT22;2987;50.884;14.818;2023-03-01T21:41:20;-2.40;99.90
5924;DHT22;2987;50.884;14.818;2023-03-01T21:43:47;-2.20;99.90
5924;DHT22;2987;50.884;14.818;2023-03-01T21:46:17;-2.10;99.90
5924;DHT22;2987;50.884;14.818;2023-03-01T21:48:44;-2.40;99.90
5924;DHT22;2987;50.884;14.818;2023-03-01T21:51:12;-2.10;99.90
5924;DHT22;2987;50.884;14.818;2023-03-01T21:53:38;-2.30;99.90
5924;DHT22;2987;50.884;14.818;2023-03-01T21:56:04;-2.10;99.90
5924;DHT22;2987;50.884;14.818;2023-03-01T21:58:31;-2.20;99.90
5924;DHT22;2987;50.884;14.818;2023-03-01T22:01:06;-2.70;99.90
5924;DHT22;2987;50.884;14.818;2023-03-01T22:03:32;-2.30;99.90
5924;DHT22;2987;50.884;14.818;2023-03-01T22:06:00;-2.40;99.90
5924;DHT22;2987;50.884;14.818;2023-03-01T22:08:28;-2.30;99.90
5924;DHT22;2987;50.884;14.818;2023-03-01T22:10:54;-2.40;99.90
5924;DHT22;2987;50.884;14.818;2023-03-01T22:13:20;-2.70;99.90
5924;DHT22;2987;50.884;14.818;2023-03-01T22:15:46;-2.60;99.90
5924;DHT22;2987;50.884;14.818;2023-03-01T22:18:13;-2.40;99.90
5924;DHT22;2987;50.884;14.818;2023-03-01T22:20:41;-2.50;99.90
5924;DHT22;2987;50.884;14.818;2023-03-01T22:23:07;-2.90;99.90
5924;DHT22;2987;50.884;14.818;2023-03-01T22:25:40;-2.90;99.90
5924;DHT22;2987;50.884;14.818;2023-03-01T22:28:07;-2.70;99.90
5924;DHT22;2987;50.884;14.818;2023-03-01T22:30:33;-2.60;99.90
5924;DHT22;2987;50.884;14.818;2023-03-01T22:33:00;-2.90;99.90
5924;DHT22;2987;50.884;14.818;2023-03-01T22:35:26;-2.80;99.90
5924;DHT22;2987;50.884;14.818;2023-03-01T22:37:52;-3.10;99.90
5924;DHT22;2987;50.884;14.818;2023-03-01T22:40:18;-3.10;99.90
5924;DHT22;2987;50.884;14.818;2023-03-01T22:42:45;-3.00;99.90
5924;DHT22;2987;50.884;14.818;2023-03-01T22:45:11;-3.10;99.90
5924;DHT22;2987;50.884;14.818;2023-03-01T22:47:37;-3.00;99.90
5924;DHT22;2987;50.884;14.818;2023-03-01T22:50:05;-3.10;99.90
5924;DHT22;2987;50.884;14.818;2023-03-01T22:52:31;-3.00;99.90
5924;DHT22;2987;50.884;14.818;2023-03-01T22:54:58;-3.10;99.90
5924;DHT22;2987;50.884;14.818;2023-03-01T22:57:24;-2.80;99.90
5924;DHT22;2987;50.884;14.818;2023-03-01T22:59:50;-3.30;99.90
5924;DHT22;2987;50.884;14.818;2023-03-01T23:02:16;-3.30;99.90
5924;DHT22;2987;50.884;14.818;2023-03-01T23:04:42;-3.20;99.90
5924;DHT22;2987;50.884;14.818;2023-03-01T23:07:08;-3.00;99.90
5924;DHT22;2987;50.884;14.818;2023-03-01T23:09:35;-3.30;99.90
5924;DHT22;2987;50.884;14.818;2023-03-01T23:12:02;-3.50;99.90
5924;DHT22;2987;50.884;14.818;2023-03-01T23:14:32;-3.40;99.90
5924;DHT22;2987;50.884;14.818;2023-03-01T23:17:01;-3.20;99.90
5924;DHT22;2987;50.884;14.818;2023-03-01T23:19:28;-3.30;99.90
5924;DHT22;2987;50.884;14.818;2023-03-01T23:21:54;-3.50;99.90
5924;DHT22;2987;50.884;14.818;2023-03-01T23:24:23;-3.00;99.90
5924;DHT22;2987;50.884;14.818;2023-03-01T23:26:58;-3.50;99.90
5924;DHT22;2987;50.884;14.818;2023-03-01T23:29:25;-3.40;99.90
5924;DHT22;2987;50.884;14.818;2023-03-01T23:31:53;-3.40;99.90
5924;DHT22;2987;50.884;14.818;2023-03-01T23:34:19;-3.40;99.90
5924;DHT22;2987;50.884;14.818;2023-03-01T23:36:46;-3.30;99.90
5924;DHT22;2987;50.884;14.818;2023-03-01T23:39:12;-3.40;99.90
5924;DHT22;2987;50.884;14.818;2023-03-01T23:41:39;-3.30;99.90
5924;DHT22;2987;50.884;14.818;2023-03-01T23:44:05;-3.50;99.90
5924;DHT22;2987;50.884;14.818;2023-03-01T23:46:33;-3.40;99.90
5924;DHT22;2987;50.884;14.818;2023-03-01T23:49:00;-3.40;99.90
5924;DHT22;2987;50.884;14.818;2023-03-01T23:51:27;-3.40;99.90
5924;DHT22;2987;50.884;14.818;2023-03-01T23:53:55;-3.40;99.90
5924;DHT22;2987;50.884;14.818;2023-03-01T23:56:25;-3.60;99.90
5924;DHT22;2987;50.884;14.818;2023-03-01T23:58:53;-3.50;99.90
